createdAt,value
2022-08-24T00:02:01.426Z,100.00
2022-08-24T00:04:32.103Z,100.00
2022-08-24T00:07:02.163Z,100.00
2022-08-24T00:09:32.415Z,100.00
2022-08-24T00:12:00.722Z,100.00
2022-08-24T00:14:28.135Z,100.00
2022-08-24T00:16:55.577Z,100.00
2022-08-24T00:19:23.445Z,100.00
2022-08-24T00:21:52.101Z,100.00
2022-08-24T00:24:20.750Z,100.00
2022-08-24T00:26:48.829Z,100.00
2022-08-24T00:29:18.312Z,100.00
2022-08-24T00:31:45.676Z,100.00
2022-08-24T00:34:13.902Z,100.00
2022-08-24T00:36:42.340Z,100.00
2022-08-24T00:39:10.376Z,100.00
2022-08-24T00:41:44.376Z,100.00
2022-08-24T00:44:13.978Z,100.00
2022-08-24T00:47:07.567Z,100.00
2022-08-24T00:50:12.186Z,100.00
2022-08-24T00:52:50.428Z,100.00
2022-08-24T00:55:27.148Z,100.00
2022-08-24T00:58:03.444Z,100.00
2022-08-24T01:00:40.703Z,100.00
2022-08-24T01:03:14.097Z,100.00
2022-08-24T01:05:41.939Z,100.00
2022-08-24T01:08:12.597Z,100.00
2022-08-24T01:11:02.048Z,100.00
2022-08-24T01:13:31.197Z,100.00
2022-08-24T01:16:03.771Z,100.00
2022-08-24T01:18:49.976Z,100.00
2022-08-24T01:21:32.245Z,100.00
2022-08-24T01:24:05.638Z,100.00
2022-08-24T01:26:47.510Z,100.00
2022-08-24T01:29:23.679Z,100.00
2022-08-24T01:31:52.690Z,100.00
2022-08-24T01:34:21.340Z,100.00
2022-08-24T01:36:56.191Z,100.00
2022-08-24T01:39:32.991Z,100.00
2022-08-24T01:42:01.767Z,100.00
2022-08-24T01:44:34.630Z,100.00
2022-08-24T01:47:07.552Z,100.00
2022-08-24T01:49:41.631Z,100.00
2022-08-24T01:52:15.485Z,100.00
2022-08-24T01:54:43.708Z,100.00
2022-08-24T01:57:14.952Z,100.00
2022-08-24T01:59:44.333Z,100.00
2022-08-24T02:02:26.147Z,100.00
2022-08-24T02:04:54.164Z,100.00
2022-08-24T02:07:22.676Z,100.00
2022-08-24T02:09:50.823Z,100.00
2022-08-24T02:12:19.840Z,100.00
2022-08-24T02:14:48.142Z,100.00
2022-08-24T02:17:16.079Z,100.00
2022-08-24T02:19:44.008Z,100.00
2022-08-24T02:22:12.230Z,100.00
2022-08-24T02:24:40.309Z,100.00
2022-08-24T02:27:08.264Z,100.00
2022-08-24T02:29:35.965Z,100.00
2022-08-24T02:32:04.577Z,100.00
2022-08-24T02:34:31.861Z,100.00
2022-08-24T02:36:59.898Z,100.00
2022-08-24T02:39:28.145Z,100.00
2022-08-24T02:41:56.464Z,100.00
2022-08-24T02:44:24.009Z,100.00
2022-08-24T02:46:51.236Z,100.00
2022-08-24T02:49:21.313Z,100.00
2022-08-24T02:51:50.590Z,100.00
2022-08-24T02:54:21.095Z,100.00
2022-08-24T02:56:51.578Z,100.00
2022-08-24T02:59:19.231Z,100.00
2022-08-24T03:01:49.819Z,100.00
2022-08-24T03:04:19.240Z,100.00
2022-08-24T03:06:47.369Z,100.00
2022-08-24T03:09:15.401Z,100.00
2022-08-24T03:11:45.157Z,100.00
2022-08-24T03:14:14.357Z,100.00
2022-08-24T03:16:42.388Z,100.00
2022-08-24T03:19:09.853Z,100.00
2022-08-24T03:21:38.542Z,100.00
2022-08-24T03:24:06.335Z,100.00
2022-08-24T03:26:34.282Z,100.00
2022-08-24T03:29:01.957Z,100.00
2022-08-24T03:31:32.489Z,100.00
2022-08-24T03:34:00.574Z,100.00
2022-08-24T03:36:28.099Z,100.00
2022-08-24T03:38:55.521Z,100.00
2022-08-24T03:41:23.738Z,100.00
2022-08-24T03:43:51.270Z,100.00
2022-08-24T03:46:29.288Z,100.00
2022-08-24T03:48:58.833Z,100.00
2022-08-24T03:51:29.185Z,100.00
2022-08-24T03:54:02.257Z,100.00
2022-08-24T03:56:29.888Z,100.00
2022-08-24T03:58:57.736Z,100.00
2022-08-24T04:01:28.913Z,100.00
2022-08-24T04:03:56.831Z,100.00
2022-08-24T04:06:29.764Z,100.00
2022-08-24T04:08:57.549Z,100.00
2022-08-24T04:11:29.448Z,100.00
2022-08-24T04:13:58.822Z,100.00
2022-08-24T04:16:28.994Z,100.00
2022-08-24T04:19:08.284Z,100.00
2022-08-24T04:21:37.479Z,100.00
2022-08-24T04:24:10.388Z,100.00
2022-08-24T04:26:44.894Z,100.00
2022-08-24T04:29:19.376Z,100.00
2022-08-24T04:31:53.391Z,100.00
2022-08-24T04:34:21.550Z,100.00
2022-08-24T04:36:49.335Z,100.00
2022-08-24T04:39:16.709Z,100.00
2022-08-24T04:42:07.114Z,100.00
2022-08-24T04:44:39.688Z,100.00
2022-08-24T04:47:08.385Z,100.00
2022-08-24T04:49:38.190Z,100.00
2022-08-24T04:52:08.238Z,100.00
2022-08-24T04:54:35.748Z,100.00
2022-08-24T04:57:12.505Z,100.00
2022-08-24T04:59:43.850Z,100.00
2022-08-24T05:02:12.807Z,100.00
2022-08-24T05:04:40.416Z,100.00
2022-08-24T05:07:08.337Z,100.00
2022-08-24T05:09:35.709Z,100.00
2022-08-24T05:12:03.875Z,100.00
2022-08-24T05:14:36.481Z,100.00
2022-08-24T05:17:04.132Z,100.00
2022-08-24T05:19:32.535Z,100.00
2022-08-24T05:22:00.775Z,100.00
2022-08-24T05:24:28.554Z,100.00
2022-08-24T05:26:56.979Z,100.00
2022-08-24T05:29:27.058Z,100.00
2022-08-24T05:31:54.773Z,100.00
2022-08-24T05:34:23.875Z,100.00
2022-08-24T05:36:51.615Z,100.00
2022-08-24T05:39:31.077Z,100.00
2022-08-24T05:41:59.867Z,100.00
2022-08-24T05:44:31.384Z,100.00
2022-08-24T05:47:02.877Z,100.00
2022-08-24T05:49:31.244Z,100.00
2022-08-24T05:51:59.710Z,100.00
2022-08-24T05:54:27.062Z,100.00
2022-08-24T05:57:06.330Z,100.00
2022-08-24T05:59:40.681Z,100.00
2022-08-24T06:02:15.440Z,100.00
2022-08-24T06:04:43.131Z,100.00
2022-08-24T06:07:13.609Z,100.00
2022-08-24T06:09:44.782Z,100.00
2022-08-24T06:12:14.192Z,100.00
2022-08-24T06:14:47.842Z,100.00
2022-08-24T06:17:18.015Z,100.00
2022-08-24T06:19:45.569Z,100.00
2022-08-24T06:22:12.931Z,100.00
2022-08-24T06:24:59.915Z,100.00
2022-08-24T06:27:29.447Z,100.00
2022-08-24T06:30:05.709Z,100.00
2022-08-24T06:33:02.260Z,100.00
2022-08-24T06:35:46.855Z,100.00
2022-08-24T06:38:14.724Z,100.00
2022-08-24T06:40:43.771Z,100.00
2022-08-24T06:43:11.737Z,100.00
2022-08-24T06:45:54.845Z,100.00
2022-08-24T06:48:27.957Z,100.00
2022-08-24T06:50:56.100Z,100.00
2022-08-24T06:53:23.856Z,100.00
2022-08-24T06:55:56.878Z,100.00
2022-08-24T06:58:28.312Z,100.00
2022-08-24T07:00:57.030Z,100.00
2022-08-24T07:03:25.757Z,100.00
2022-08-24T07:06:04.813Z,100.00
2022-08-24T07:08:43.097Z,100.00
2022-08-24T07:11:17.967Z,100.00
2022-08-24T07:13:50.165Z,100.00
2022-08-24T07:16:20.634Z,100.00
2022-08-24T07:18:52.038Z,100.00
2022-08-24T07:21:22.452Z,100.00
2022-08-24T07:23:59.091Z,100.00
2022-08-24T07:26:30.188Z,100.00
2022-08-24T07:29:07.616Z,100.00
2022-08-24T07:31:42.961Z,100.00
2022-08-24T07:34:42.458Z,100.00
2022-08-24T07:37:09.994Z,100.00
2022-08-24T07:39:41.065Z,98.87
2022-08-24T07:42:13.758Z,95.77
2022-08-24T07:44:45.236Z,96.88
2022-08-24T07:47:37.091Z,95.98
2022-08-24T07:50:02.080Z,93.03
2022-08-24T07:52:30.350Z,93.50
2022-08-24T07:54:58.140Z,91.35
2022-08-24T07:57:25.746Z,91.33
2022-08-24T07:59:55.428Z,92.17
2022-08-24T08:02:22.765Z,90.40
2022-08-24T08:04:56.548Z,90.17
2022-08-24T08:07:23.821Z,88.76
2022-08-24T08:09:52.174Z,88.03
2022-08-24T08:12:19.610Z,89.68
2022-08-24T08:14:57.374Z,90.36
2022-08-24T08:17:25.305Z,91.39
2022-08-24T08:19:52.865Z,87.42
2022-08-24T08:22:39.541Z,90.82
2022-08-24T08:25:27.095Z,94.82
2022-08-24T08:27:56.851Z,92.54
2022-08-24T08:30:28.557Z,93.34
2022-08-24T08:32:55.989Z,95.41
2022-08-24T08:35:23.292Z,93.03
2022-08-24T08:37:50.815Z,89.15
2022-08-24T08:40:45.112Z,85.41
2022-08-24T08:43:48.858Z,87.61
2022-08-24T08:46:56.969Z,86.52
2022-08-24T08:50:04.426Z,86.37
2022-08-24T08:53:28.785Z,88.35
2022-08-24T08:56:52.529Z,82.59
2022-08-24T08:59:51.752Z,83.51
2022-08-24T09:02:50.657Z,86.19
2022-08-24T09:05:47.281Z,84.82
2022-08-24T09:08:40.441Z,84.98
2022-08-24T09:11:49.560Z,84.86
2022-08-24T09:15:10.462Z,83.10
2022-08-24T09:17:47.956Z,80.63
2022-08-24T09:20:28.963Z,81.38
2022-08-24T09:23:54.327Z,76.24
2022-08-24T09:26:50.772Z,77.45
2022-08-24T09:29:43.212Z,78.00
2022-08-24T09:33:09.034Z,80.16
2022-08-24T09:36:13.978Z,81.37
2022-08-24T09:39:32.361Z,80.12
2022-08-24T09:42:37.213Z,74.25
2022-08-24T09:46:06.757Z,74.06
2022-08-24T09:49:02.059Z,77.10
2022-08-24T09:52:21.481Z,75.93
2022-08-24T09:55:04.789Z,76.07
2022-08-24T09:58:30.172Z,75.44
2022-08-24T10:01:36.669Z,76.87
2022-08-24T10:05:02.103Z,79.15
2022-08-24T10:08:25.753Z,80.58
2022-08-24T10:11:02.542Z,78.17
2022-08-24T10:14:03.813Z,72.14
2022-08-24T10:17:05.318Z,72.27
2022-08-24T10:20:23.771Z,79.39
2022-08-24T10:23:27.135Z,73.60
2022-08-24T10:26:23.741Z,79.91
2022-08-24T10:29:26.049Z,68.61
2022-08-24T10:32:47.923Z,65.92
2022-08-24T10:35:38.949Z,68.27
2022-08-24T10:38:48.925Z,65.11
2022-08-24T10:41:29.209Z,62.17
2022-08-24T10:44:25.008Z,65.11
2022-08-24T10:47:07.084Z,63.84
2022-08-24T10:49:37.385Z,60.02
2022-08-24T10:52:30.158Z,61.02
2022-08-24T10:55:31.464Z,66.41
2022-08-24T10:58:34.281Z,63.64
2022-08-24T11:01:33.865Z,63.13
2022-08-24T11:04:12.336Z,62.81
2022-08-24T11:07:01.490Z,66.18
2022-08-24T11:10:01.140Z,65.23
2022-08-24T11:12:40.277Z,63.49
2022-08-24T11:15:24.852Z,59.99
2022-08-24T11:18:01.066Z,54.06
2022-08-24T11:20:43.037Z,58.13
2022-08-24T11:23:22.361Z,56.16
2022-08-24T11:26:06.551Z,51.54
2022-08-24T11:28:54.817Z,52.77
2022-08-24T11:31:44.434Z,55.53
2022-08-24T11:34:37.861Z,52.30
2022-08-24T11:37:15.751Z,52.08
2022-08-24T11:39:43.207Z,51.50
2022-08-24T11:42:55.152Z,54.12
2022-08-24T11:46:00.377Z,52.78
2022-08-24T11:48:57.421Z,53.67
2022-08-24T11:52:11.837Z,54.63
2022-08-24T11:55:10.772Z,55.29
2022-08-24T11:58:43.522Z,55.45
2022-08-24T12:01:36.390Z,53.55
2022-08-24T12:04:57.793Z,54.50
2022-08-24T12:08:14.727Z,58.66
2022-08-24T12:11:07.111Z,56.47
2022-08-24T12:14:14.868Z,57.75
2022-08-24T12:17:19.052Z,59.14
2022-08-24T12:20:01.301Z,58.54
2022-08-24T12:22:31.652Z,55.73
2022-08-24T12:25:25.377Z,56.04
2022-08-24T12:27:54.269Z,56.78
2022-08-24T12:30:22.641Z,58.12
2022-08-24T12:33:14.002Z,58.38
2022-08-24T12:35:46.469Z,58.41
2022-08-24T12:38:28.077Z,58.92
2022-08-24T12:41:21.123Z,59.29
2022-08-24T12:43:58.818Z,57.77
2022-08-24T12:46:27.216Z,55.16
2022-08-24T12:49:05.414Z,53.50
2022-08-24T12:52:22.879Z,56.04
2022-08-24T12:55:14.169Z,54.76
2022-08-24T12:58:54.601Z,54.82
2022-08-24T13:01:29.805Z,53.90
2022-08-24T13:04:39.029Z,52.59
2022-08-24T13:07:30.974Z,56.06
2022-08-24T13:09:58.082Z,51.99
2022-08-24T13:12:46.265Z,53.83
2022-08-24T13:15:31.748Z,51.14
2022-08-24T13:18:14.197Z,55.65
2022-08-24T13:20:44.636Z,53.46
2022-08-24T13:23:24.432Z,48.39
2022-08-24T13:25:59.072Z,45.55
2022-08-24T13:28:47.801Z,43.41
2022-08-24T13:31:38.592Z,44.98
2022-08-24T13:34:16.693Z,44.68
2022-08-24T13:37:22.639Z,46.29
2022-08-24T13:40:25.842Z,45.04
2022-08-24T13:43:19.577Z,40.60
2022-08-24T13:46:13.260Z,37.00
2022-08-24T13:49:21.072Z,38.26
2022-08-24T13:52:14.928Z,38.06
2022-08-24T13:55:20.601Z,36.62
2022-08-24T13:58:43.462Z,35.13
2022-08-24T14:01:33.230Z,36.06
2022-08-24T14:04:25.000Z,35.98
2022-08-24T14:07:29.329Z,33.95
2022-08-24T14:10:09.149Z,32.79
2022-08-24T14:13:04.912Z,32.82
2022-08-24T14:16:25.106Z,32.52
2022-08-24T14:19:07.173Z,33.81
2022-08-24T14:22:03.855Z,31.33
2022-08-24T14:25:14.650Z,31.72
2022-08-24T14:28:06.924Z,31.90
2022-08-24T14:30:43.326Z,32.33
2022-08-24T14:33:30.303Z,32.43
2022-08-24T14:36:39.185Z,30.58
2022-08-24T14:39:43.895Z,31.93
2022-08-24T14:43:19.392Z,30.43
2022-08-24T14:46:06.760Z,29.94
2022-08-24T14:49:39.091Z,31.29
2022-08-24T14:53:02.037Z,28.57
2022-08-24T14:56:10.373Z,27.57
2022-08-24T14:59:06.871Z,27.26
2022-08-24T15:01:48.355Z,27.75
2022-08-24T15:04:43.681Z,29.39
2022-08-24T15:08:01.530Z,28.61
2022-08-24T15:10:51.220Z,30.60
2022-08-24T15:13:59.512Z,29.24
2022-08-24T15:16:39.000Z,33.51
2022-08-24T15:19:54.900Z,28.95
2022-08-24T15:22:58.255Z,29.25
2022-08-24T15:26:04.793Z,27.06
2022-08-24T15:28:34.596Z,27.34
2022-08-24T15:31:10.900Z,27.46
2022-08-24T15:34:02.317Z,29.20
2022-08-24T15:36:36.439Z,30.37
2022-08-24T15:39:05.945Z,30.59
2022-08-24T15:41:47.149Z,27.96
2022-08-24T15:44:24.679Z,28.98
2022-08-24T15:47:13.747Z,28.84
2022-08-24T15:50:21.069Z,28.72
2022-08-24T15:53:06.948Z,28.59
2022-08-24T15:55:42.862Z,30.31
2022-08-24T15:58:37.547Z,30.41
2022-08-24T16:01:32.488Z,29.50
2022-08-24T16:04:16.379Z,28.42
2022-08-24T16:06:48.821Z,26.91
2022-08-24T16:09:20.925Z,27.54
2022-08-24T16:11:57.170Z,28.54
2022-08-24T16:14:31.686Z,28.81
2022-08-24T16:17:34.716Z,29.94
2022-08-24T16:20:14.041Z,29.83
2022-08-24T16:23:31.557Z,28.75
2022-08-24T16:26:32.010Z,30.48
2022-08-24T16:29:00.411Z,31.28
2022-08-24T16:31:51.912Z,31.54
2022-08-24T16:34:29.828Z,31.64
2022-08-24T16:36:57.977Z,30.74
2022-08-24T16:39:26.045Z,31.57
2022-08-24T16:42:06.489Z,32.75
2022-08-24T16:44:39.777Z,33.76
2022-08-24T16:47:08.606Z,33.84
2022-08-24T16:49:37.628Z,35.70
2022-08-24T16:52:05.352Z,35.31
2022-08-24T16:54:33.226Z,36.19
2022-08-24T16:57:14.985Z,36.29
2022-08-24T16:59:46.851Z,36.92
2022-08-24T17:02:17.005Z,37.78
2022-08-24T17:04:45.886Z,38.74
2022-08-24T17:07:21.348Z,39.74
2022-08-24T17:09:49.448Z,40.71
2022-08-24T17:12:17.233Z,41.09
2022-08-24T17:14:44.951Z,41.96
2022-08-24T17:17:22.153Z,42.82
2022-08-24T17:19:53.569Z,42.68
2022-08-24T17:22:28.396Z,43.62
2022-08-24T17:24:55.764Z,44.56
2022-08-24T17:27:32.411Z,45.27
2022-08-24T17:30:03.794Z,46.07
2022-08-24T17:32:31.918Z,47.47
2022-08-24T17:34:59.246Z,48.92
2022-08-24T17:37:27.160Z,49.79
2022-08-24T17:39:58.333Z,50.88
2022-08-24T17:42:49.683Z,51.62
2022-08-24T17:45:13.776Z,53.33
2022-08-24T17:47:43.305Z,53.49
2022-08-24T17:50:14.661Z,53.31
2022-08-24T17:52:43.386Z,54.84
2022-08-24T17:55:13.966Z,55.18
2022-08-24T17:57:44.571Z,56.26
2022-08-24T18:00:16.123Z,58.07
2022-08-24T18:02:44.028Z,57.58
2022-08-24T18:05:13.703Z,59.24
2022-08-24T18:07:54.434Z,59.12
2022-08-24T18:10:32.145Z,60.63
2022-08-24T18:13:02.130Z,59.57
2022-08-24T18:15:34.553Z,60.65
2022-08-24T18:18:08.698Z,62.25
2022-08-24T18:20:40.728Z,63.03
2022-08-24T18:23:11.154Z,61.52
2022-08-24T18:25:50.791Z,64.93
2022-08-24T18:28:22.238Z,62.98
2022-08-24T18:30:51.700Z,62.96
2022-08-24T18:33:24.244Z,62.90
2022-08-24T18:35:51.845Z,65.95
2022-08-24T18:38:19.159Z,68.23
2022-08-24T18:40:52.325Z,68.27
2022-08-24T18:43:24.272Z,68.74
2022-08-24T18:45:53.058Z,67.78
2022-08-24T18:48:22.107Z,67.90
2022-08-24T18:50:51.202Z,70.29
2022-08-24T18:53:19.522Z,69.91
2022-08-24T18:55:48.002Z,76.38
2022-08-24T18:58:15.475Z,74.61
2022-08-24T19:00:43.299Z,73.98
2022-08-24T19:03:18.691Z,76.04
2022-08-24T19:05:46.440Z,76.82
2022-08-24T19:08:13.777Z,76.03
2022-08-24T19:10:41.258Z,77.78
2022-08-24T19:13:18.244Z,78.21
2022-08-24T19:15:48.649Z,81.78
2022-08-24T19:18:20.512Z,84.19
2022-08-24T19:20:55.350Z,80.24
2022-08-24T19:23:32.521Z,80.67
2022-08-24T19:26:03.511Z,83.40
2022-08-24T19:28:31.832Z,82.96
2022-08-24T19:31:04.688Z,84.33
2022-08-24T19:33:41.915Z,89.84
2022-08-24T19:36:09.599Z,87.08
2022-08-24T19:38:37.059Z,90.67
2022-08-24T19:41:11.620Z,88.00
2022-08-24T19:44:01.389Z,87.02
2022-08-24T19:46:28.757Z,91.10
2022-08-24T19:48:56.216Z,89.95
2022-08-24T19:51:23.701Z,89.97
2022-08-24T19:53:50.959Z,89.60
2022-08-24T19:56:18.620Z,90.71
2022-08-24T19:58:57.946Z,93.38
2022-08-24T20:01:36.535Z,91.63
2022-08-24T20:04:07.954Z,92.60
2022-08-24T20:06:37.453Z,91.62
2022-08-24T20:09:05.352Z,94.76
2022-08-24T20:11:33.358Z,94.42
2022-08-24T20:14:02.513Z,96.95
2022-08-24T20:16:42.134Z,98.24
2022-08-24T20:19:11.748Z,97.06
2022-08-24T20:21:39.771Z,96.29
2022-08-24T20:24:07.323Z,100.00
2022-08-24T20:26:43.877Z,100.00
2022-08-24T20:29:12.741Z,100.00
2022-08-24T20:31:40.771Z,100.00
2022-08-24T20:34:08.112Z,100.00
2022-08-24T20:36:45.007Z,100.00
2022-08-24T20:39:14.480Z,100.00
2022-08-24T20:41:41.756Z,100.00
2022-08-24T20:44:09.284Z,100.00
2022-08-24T20:46:38.837Z,100.00
2022-08-24T20:49:08.258Z,100.00
2022-08-24T20:51:42.792Z,100.00
2022-08-24T20:54:11.316Z,100.00
2022-08-24T20:56:38.945Z,100.00
2022-08-24T20:59:10.641Z,100.00
2022-08-24T21:01:42.256Z,100.00
2022-08-24T21:04:10.121Z,100.00
2022-08-24T21:06:40.404Z,100.00
2022-08-24T21:09:14.038Z,100.00
2022-08-24T21:11:43.366Z,100.00
2022-08-24T21:14:10.667Z,100.00
2022-08-24T21:16:42.101Z,100.00
2022-08-24T21:19:17.345Z,100.00
2022-08-24T21:21:46.979Z,100.00
2022-08-24T21:24:16.149Z,100.00
2022-08-24T21:26:43.716Z,100.00
2022-08-24T21:29:11.339Z,100.00
2022-08-24T21:31:39.595Z,100.00
2022-08-24T21:34:26.693Z,100.00
2022-08-24T21:36:55.532Z,100.00
2022-08-24T21:39:23.097Z,100.00
2022-08-24T21:41:50.305Z,100.00
2022-08-24T21:44:17.583Z,100.00
2022-08-24T21:46:45.454Z,100.00
2022-08-24T21:49:12.835Z,100.00
2022-08-24T21:51:40.674Z,100.00
2022-08-24T21:54:08.310Z,100.00
2022-08-24T21:56:35.693Z,100.00
2022-08-24T21:59:03.690Z,100.00
2022-08-24T22:01:31.577Z,100.00
2022-08-24T22:03:59.235Z,100.00
2022-08-24T22:06:31.290Z,100.00
2022-08-24T22:09:00.602Z,100.00
2022-08-24T22:11:31.512Z,100.00
2022-08-24T22:13:59.671Z,100.00
2022-08-24T22:16:27.067Z,100.00
2022-08-24T22:18:54.991Z,100.00
2022-08-24T22:21:26.256Z,100.00
2022-08-24T22:23:55.253Z,100.00
2022-08-24T22:26:27.980Z,100.00
2022-08-24T22:28:56.720Z,100.00
2022-08-24T22:31:30.025Z,100.00
2022-08-24T22:34:01.094Z,100.00
2022-08-24T22:36:29.738Z,100.00
2022-08-24T22:38:58.884Z,100.00
2022-08-24T22:41:28.627Z,100.00
2022-08-24T22:44:16.698Z,100.00
2022-08-24T22:46:44.164Z,100.00
2022-08-24T22:49:12.986Z,100.00
2022-08-24T22:51:41.554Z,100.00
2022-08-24T22:54:09.906Z,100.00
2022-08-24T22:56:43.836Z,100.00
2022-08-24T22:59:20.390Z,100.00
2022-08-24T23:01:51.969Z,100.00
2022-08-24T23:04:29.251Z,100.00
2022-08-24T23:06:56.734Z,100.00
2022-08-24T23:09:24.322Z,100.00
2022-08-24T23:11:52.467Z,100.00
2022-08-24T23:14:22.284Z,100.00
2022-08-24T23:16:51.622Z,100.00
2022-08-24T23:19:42.892Z,100.00
2022-08-24T23:22:16.361Z,100.00
2022-08-24T23:24:45.218Z,100.00
2022-08-24T23:27:19.537Z,100.00
2022-08-24T23:29:49.240Z,100.00
2022-08-24T23:32:18.825Z,100.00
2022-08-24T23:34:48.433Z,100.00
2022-08-24T23:37:19.526Z,100.00
2022-08-24T23:39:47.303Z,100.00
2022-08-24T23:42:15.068Z,100.00
2022-08-24T23:44:42.637Z,100.00
2022-08-24T23:47:10.328Z,100.00
2022-08-24T23:49:39.698Z,100.00
2022-08-24T23:52:07.561Z,100.00
2022-08-24T23:54:35.305Z,100.00
2022-08-24T23:57:08.334Z,100.00
2022-08-24T23:59:36.284Z,100.00
